Allison, Colorado
Current Conditions -  °F | °C
As of 10:53 AM on Monday 24 Nov 2014 (Local Time) from KDRO Reporting Station
Scattered Clouds Scattered Clouds  
Wind Chill: 24°   Ceiling: Unl
Heat Index: 35°   Visibility: 10mi
Dew Point: 12°   Wind: 18mph
Humidity: 39%   Direction: 290°WNW
Pressure: 30.1"   Gusts: 24mph
Location:  37.0891°N, 107.649°W
Report Text: KDRO 241753Z AUTO 29016G21KT 10SM SCT060 02/M11 A3010 RMK AO2 WSHFT 1728 SLP214 T00171111 10017 21083 58005
Loading
Personal Weather Stations






























Interactive Weather Map New forecast layout! Learn more

10-Day Weather Forecast

Advertisements
Track Severe Weather on mobile